Preveza, Greece
Current Conditions -  °F | °C
As of 12:50 AM on Tuesday 23 Dec 2014 (Local Time) from LGPZ Reporting Station
Clear Clear  
Wind Chill:   Ceiling: Unl
Heat Index:   Visibility: 6mi
Dew Point:   Wind: 7mph
Humidity: 66%   Direction: 60°ENE
Pressure: 30.39"   Gusts: NA
Location:  38.95°N, 20.75°E
Report Text: LGPZ 222150Z 06006KT CAVOK 08/02 Q1029
Loading
Personal Weather Stations






























Interactive Weather Map New forecast layout! Learn more

10-Day Weather Forecast

Advertisements
Track Severe Weather on mobile